sensor_id;sensor_type;location;lat;lon;timestamp;temperature;humidity
15698;DHT22;7949;48.726;9.102;2022-09-02T05:28:07;9.10;99.90
15698;DHT22;7949;48.726;9.102;2022-09-02T17:40:23;21.60;83.30
15698;DHT22;7949;48.726;9.102;2022-09-02T17:43:07;21.40;82.70
15698;DHT22;7949;48.726;9.102;2022-09-02T17:45:34;21.30;84.00
15698;DHT22;7949;48.726;9.102;2022-09-02T17:48:02;21.20;83.30
15698;DHT22;7949;48.726;9.102;2022-09-02T17:50:29;21.10;84.30
15698;DHT22;7949;48.726;9.102;2022-09-02T17:52:56;21.00;85.70
15698;DHT22;7949;48.726;9.102;2022-09-02T17:55:24;20.90;85.00
15698;DHT22;7949;48.726;9.102;2022-09-02T17:58:02;20.80;85.70
15698;DHT22;7949;48.726;9.102;2022-09-02T18:00:34;20.80;85.80
15698;DHT22;7949;48.726;9.102;2022-09-02T18:03:22;20.60;86.90
15698;DHT22;7949;48.726;9.102;2022-09-02T18:06:08;20.60;87.30
15698;DHT22;7949;48.726;9.102;2022-09-02T18:08:44;20.50;88.90
15698;DHT22;7949;48.726;9.102;2022-09-02T18:11:12;20.30;89.90
15698;DHT22;7949;48.726;9.102;2022-09-02T18:13:49;20.20;90.10
15698;DHT22;7949;48.726;9.102;2022-09-02T18:16:24;20.20;90.50
15698;DHT22;7949;48.726;9.102;2022-09-02T18:19:01;20.00;91.50
15698;DHT22;7949;48.726;9.102;2022-09-02T18:21:40;19.90;91.40
15698;DHT22;7949;48.726;9.102;2022-09-02T18:24:15;19.80;92.00
15698;DHT22;7949;48.726;9.102;2022-09-02T18:26:52;19.70;92.20
15698;DHT22;7949;48.726;9.102;2022-09-02T18:29:36;19.60;92.70
15698;DHT22;7949;48.726;9.102;2022-09-02T18:32:11;19.50;93.00
15698;DHT22;7949;48.726;9.102;2022-09-02T18:34:49;19.50;93.30
15698;DHT22;7949;48.726;9.102;2022-09-02T18:37:26;19.40;93.90
15698;DHT22;7949;48.726;9.102;2022-09-02T18:40:11;19.30;94.30
15698;DHT22;7949;48.726;9.102;2022-09-02T18:42:49;19.30;94.60
15698;DHT22;7949;48.726;9.102;2022-09-02T18:45:23;19.20;94.50
15698;DHT22;7949;48.726;9.102;2022-09-02T18:47:53;19.10;95.00
15698;DHT22;7949;48.726;9.102;2022-09-02T18:50:23;19.10;95.40
15698;DHT22;7949;48.726;9.102;2022-09-02T18:52:51;19.00;95.30
15698;DHT22;7949;48.726;9.102;2022-09-02T18:55:26;18.90;96.20
15698;DHT22;7949;48.726;9.102;2022-09-02T18:57:58;18.90;96.40
15698;DHT22;7949;48.726;9.102;2022-09-02T19:00:26;18.80;96.80
15698;DHT22;7949;48.726;9.102;2022-09-02T19:02:56;18.80;97.60
15698;DHT22;7949;48.726;9.102;2022-09-02T19:05:27;18.70;97.80
15698;DHT22;7949;48.726;9.102;2022-09-02T19:08:00;18.60;98.40
15698;DHT22;7949;48.726;9.102;2022-09-02T19:10:45;18.60;98.70
15698;DHT22;7949;48.726;9.102;2022-09-02T19:13:14;18.50;99.60
15698;DHT22;7949;48.726;9.102;2022-09-02T19:15:41;18.50;99.90
15698;DHT22;7949;48.726;9.102;2022-09-02T19:18:08;18.40;99.90
15698;DHT22;7949;48.726;9.102;2022-09-02T19:20:36;18.40;99.90
15698;DHT22;7949;48.726;9.102;2022-09-02T19:23:04;18.30;99.90
15698;DHT22;7949;48.726;9.102;2022-09-02T19:25:33;18.30;99.90
15698;DHT22;7949;48.726;9.102;2022-09-02T19:28:01;18.20;99.90
15698;DHT22;7949;48.726;9.102;2022-09-02T19:30:32;18.20;99.90
15698;DHT22;7949;48.726;9.102;2022-09-02T19:33:03;18.10;99.90
15698;DHT22;7949;48.726;9.102;2022-09-02T19:35:31;18.00;99.90
15698;DHT22;7949;48.726;9.102;2022-09-02T19:37:59;18.10;99.90
15698;DHT22;7949;48.726;9.102;2022-09-02T19:40:28;18.00;99.90
15698;DHT22;7949;48.726;9.102;2022-09-02T19:42:57;17.90;99.90
15698;DHT22;7949;48.726;9.102;2022-09-02T19:45:28;17.90;99.90
15698;DHT22;7949;48.726;9.102;2022-09-02T19:47:56;17.80;99.90
15698;DHT22;7949;48.726;9.102;2022-09-02T19:50:24;17.80;99.90
15698;DHT22;7949;48.726;9.102;2022-09-02T19:52:51;17.70;99.90
15698;DHT22;7949;48.726;9.102;2022-09-02T19:55:18;17.60;99.90
15698;DHT22;7949;48.726;9.102;2022-09-02T19:57:46;17.60;99.90
15698;DHT22;7949;48.726;9.102;2022-09-02T20:00:14;17.50;99.90
15698;DHT22;7949;48.726;9.102;2022-09-02T20:02:41;17.50;99.90
15698;DHT22;7949;48.726;9.102;2022-09-02T20:05:11;17.40;99.90
15698;DHT22;7949;48.726;9.102;2022-09-02T20:07:38;17.30;99.90
15698;DHT22;7949;48.726;9.102;2022-09-02T20:10:06;17.30;99.90
15698;DHT22;7949;48.726;9.102;2022-09-02T20:12:34;17.20;99.90
15698;DHT22;7949;48.726;9.102;2022-09-02T20:15:01;17.20;99.90
15698;DHT22;7949;48.726;9.102;2022-09-02T20:17:29;17.10;99.90
15698;DHT22;7949;48.726;9.102;2022-09-02T20:19:57;17.10;99.90
15698;DHT22;7949;48.726;9.102;2022-09-02T20:22:27;17.00;99.90
15698;DHT22;7949;48.726;9.102;2022-09-02T20:24:56;17.00;99.90
15698;DHT22;7949;48.726;9.102;2022-09-02T20:27:29;17.00;99.90
15698;DHT22;7949;48.726;9.102;2022-09-02T20:30:04;16.90;99.90
15698;DHT22;7949;48.726;9.102;2022-09-02T20:32:42;16.90;99.90
15698;DHT22;7949;48.726;9.102;2022-09-02T20:35:38;16.90;99.90
15698;DHT22;7949;48.726;9.102;2022-09-02T20:38:25;16.90;99.90
15698;DHT22;7949;48.726;9.102;2022-09-02T20:41:02;16.90;99.90
15698;DHT22;7949;48.726;9.102;2022-09-02T20:43:44;16.90;99.90
15698;DHT22;7949;48.726;9.102;2022-09-02T20:46:26;16.90;99.90
15698;DHT22;7949;48.726;9.102;2022-09-02T20:49:02;16.90;99.90
15698;DHT22;7949;48.726;9.102;2022-09-02T20:51:38;16.90;99.90
15698;DHT22;7949;48.726;9.102;2022-09-02T20:54:18;16.80;99.90
15698;DHT22;7949;48.726;9.102;2022-09-02T20:56:53;16.90;99.90
15698;DHT22;7949;48.726;9.102;2022-09-02T20:59:29;16.90;99.90
15698;DHT22;7949;48.726;9.102;2022-09-02T21:01:59;16.80;99.90
15698;DHT22;7949;48.726;9.102;2022-09-02T21:04:31;16.80;99.90
15698;DHT22;7949;48.726;9.102;2022-09-02T21:07:02;16.70;99.90
15698;DHT22;7949;48.726;9.102;2022-09-02T21:09:40;16.70;99.90
15698;DHT22;7949;48.726;9.102;2022-09-02T21:12:16;16.70;99.90
15698;DHT22;7949;48.726;9.102;2022-09-02T21:14:46;16.60;99.90
15698;DHT22;7949;48.726;9.102;2022-09-02T21:17:19;16.60;99.90
15698;DHT22;7949;48.726;9.102;2022-09-02T21:19:53;16.50;99.90
15698;DHT22;7949;48.726;9.102;2022-09-02T21:22:27;16.50;99.90
